RPC3327 RPVE-RPVP
Flight info
| Callsign | RPC3327 |
|---|---|
| Flight time | 0h 54m |
| Altitude | 40000 |
| Route | KLO8A KLO TR14 IOO/N0436F400 W17 ZENNY ZENNY2W |
| Aircraft | C25C/M-SDE2E3FGHRWXY/LB1 |
Departure
| Time | 2026-04-26 13:08 |
|---|---|
| Airport | Godofredo P. Ramos Airport (RPVE) |
Arrival
| Time | 2026-04-26 14:02 |
|---|---|
| Airport | Puerto Princesa International Airport / PAF Antonio Bautista Air Base (RPVP) |
| Time | Latitude | Longitude | Altitude | Speed | Heading |
|---|---|---|---|---|---|
| 2026-04-26 12:51 | 11.92475 | 121.96328 | 20 ft | 0 kts | 63° |
| 2026-04-26 13:03 | 11.92474 | 121.96331 | 20 ft | 1 kts | 119° |
| 2026-04-26 13:03 | 11.92460 | 121.96311 | 21 ft | 12 kts | 250° |
| 2026-04-26 13:03 | 11.92462 | 121.96282 | 20 ft | 3 kts | 334° |
| 2026-04-26 13:03 | 11.92506 | 121.96260 | 20 ft | 15 kts | 333° |
| 2026-04-26 13:04 | 11.92615 | 121.96204 | 20 ft | 16 kts | 333° |
| 2026-04-26 13:04 | 11.92711 | 121.96169 | 20 ft | 18 kts | 333° |
| 2026-04-26 13:04 | 11.92811 | 121.96094 | 22 ft | 17 kts | 277° |
| 2026-04-26 13:04 | 11.92779 | 121.96049 | 21 ft | 4 kts | 239° |
| 2026-04-26 13:05 | 11.92726 | 121.95937 | 21 ft | 30 kts | 244° |
| 2026-04-26 13:05 | 11.92621 | 121.95729 | 20 ft | 33 kts | 242° |
| 2026-04-26 13:05 | 11.92518 | 121.95521 | 18 ft | 33 kts | 243° |
| 2026-04-26 13:05 | 11.92416 | 121.95321 | 18 ft | 24 kts | 243° |
| 2026-04-26 13:06 | 11.92356 | 121.95201 | 18 ft | 18 kts | 239° |
| 2026-04-26 13:06 | 11.92312 | 121.95111 | 21 ft | 11 kts | 243° |
| 2026-04-26 13:06 | 11.92278 | 121.95023 | 21 ft | 11 kts | 265° |
| 2026-04-26 13:06 | 11.92268 | 121.95022 | 22 ft | 7 kts | 73° |
| 2026-04-26 13:07 | 11.92269 | 121.95026 | 22 ft | 0 kts | 66° |
| 2026-04-26 13:07 | 11.92282 | 121.95054 | 21 ft | 23 kts | 63° |
| 2026-04-26 13:08 | 11.92523 | 121.95535 | 65 ft | 123 kts | 65° |
| 2026-04-26 13:08 | 11.92995 | 121.96483 | 689 ft | 166 kts | 64° |
| 2026-04-26 13:08 | 11.93562 | 121.97613 | 1654 ft | 193 kts | 65° |
| 2026-04-26 13:08 | 11.94227 | 121.98981 | 2592 ft | 230 kts | 65° |
| 2026-04-26 13:09 | 11.94878 | 122.00410 | 4335 ft | 212 kts | 65° |
| 2026-04-26 13:09 | 11.95474 | 122.01821 | 5469 ft | 224 kts | 78° |
| 2026-04-26 13:09 | 11.95384 | 122.03431 | 6585 ft | 232 kts | 101° |
| 2026-04-26 13:09 | 11.94581 | 122.04885 | 7624 ft | 241 kts | 125° |
| 2026-04-26 13:10 | 11.93550 | 122.06264 | 8650 ft | 247 kts | 125° |
| 2026-04-26 13:10 | 11.92459 | 122.07649 | 9676 ft | 253 kts | 127° |
| 2026-04-26 13:10 | 11.91339 | 122.09050 | 10643 ft | 257 kts | 127° |
| 2026-04-26 13:10 | 11.90211 | 122.10486 | 11605 ft | 261 kts | 127° |
| 2026-04-26 13:11 | 11.89087 | 122.11927 | 12527 ft | 265 kts | 127° |
| 2026-04-26 13:11 | 11.87927 | 122.13410 | 13442 ft | 269 kts | 128° |
| 2026-04-26 13:11 | 11.86732 | 122.14929 | 14277 ft | 273 kts | 128° |
| 2026-04-26 13:11 | 11.85522 | 122.16471 | 14879 ft | 287 kts | 127° |
| 2026-04-26 13:12 | 11.84220 | 122.18134 | 14917 ft | 319 kts | 127° |
| 2026-04-26 13:12 | 11.82787 | 122.19961 | 14924 ft | 328 kts | 128° |
| 2026-04-26 13:12 | 11.81390 | 122.21735 | 14923 ft | 314 kts | 128° |
| 2026-04-26 13:12 | 11.80053 | 122.23437 | 15035 ft | 301 kts | 127° |
| 2026-04-26 13:13 | 11.78783 | 122.25054 | 16156 ft | 287 kts | 127° |
| 2026-04-26 13:13 | 11.77537 | 122.26644 | 16885 ft | 293 kts | 127° |
| 2026-04-26 13:13 | 11.76232 | 122.28307 | 17648 ft | 298 kts | 127° |
| 2026-04-26 13:13 | 11.74927 | 122.29967 | 18357 ft | 302 kts | 127° |
| 2026-04-26 13:14 | 11.73601 | 122.31652 | 18981 ft | 306 kts | 128° |
| 2026-04-26 13:14 | 11.72274 | 122.33342 | 19604 ft | 311 kts | 128° |
| 2026-04-26 13:14 | 11.70912 | 122.35075 | 20238 ft | 315 kts | 128° |
| 2026-04-26 13:14 | 11.69525 | 122.36819 | 20859 ft | 319 kts | 131° |
| 2026-04-26 13:15 | 11.67745 | 122.38160 | 21473 ft | 323 kts | 156° |
| 2026-04-26 13:15 | 11.65563 | 122.38725 | 22099 ft | 326 kts | 172° |
| 2026-04-26 13:15 | 11.63304 | 122.39017 | 22732 ft | 329 kts | 174° |
| 2026-04-26 13:15 | 11.61792 | 122.39178 | 23153 ft | 331 kts | 174° |
| 2026-04-26 13:16 | 11.58717 | 122.39552 | 23904 ft | 335 kts | 174° |
| 2026-04-26 13:16 | 11.56405 | 122.39865 | 24470 ft | 336 kts | 173° |
| 2026-04-26 13:16 | 11.54076 | 122.40170 | 25023 ft | 338 kts | 174° |
| 2026-04-26 13:16 | 11.51730 | 122.40466 | 25580 ft | 340 kts | 174° |
| 2026-04-26 13:17 | 11.47004 | 122.41072 | 26647 ft | 345 kts | 174° |
| 2026-04-26 13:17 | 11.44614 | 122.41381 | 27171 ft | 347 kts | 174° |
| 2026-04-26 13:18 | 11.39816 | 122.41997 | 28237 ft | 350 kts | 174° |
| 2026-04-26 13:18 | 11.37405 | 122.42295 | 28873 ft | 349 kts | 176° |
| 2026-04-26 13:18 | 11.32645 | 122.41733 | 30133 ft | 343 kts | 197° |
| 2026-04-26 13:19 | 11.30420 | 122.40874 | 30689 ft | 340 kts | 205° |
| 2026-04-26 13:19 | 11.28373 | 122.39694 | 31239 ft | 338 kts | 214° |
| 2026-04-26 13:19 | 11.26529 | 122.38216 | 31799 ft | 336 kts | 222° |
| 2026-04-26 13:19 | 11.24935 | 122.36479 | 32351 ft | 335 kts | 230° |
| 2026-04-26 13:20 | 11.23526 | 122.34582 | 32920 ft | 334 kts | 232° |
| 2026-04-26 13:20 | 11.22125 | 122.32703 | 33456 ft | 333 kts | 231° |
| 2026-04-26 13:20 | 11.20725 | 122.30839 | 34005 ft | 331 kts | 231° |
| 2026-04-26 13:20 | 11.19331 | 122.28980 | 34473 ft | 329 kts | 231° |
| 2026-04-26 13:21 | 11.17946 | 122.27128 | 34944 ft | 328 kts | 232° |
| 2026-04-26 13:21 | 11.17032 | 122.25905 | 35275 ft | 326 kts | 232° |
| 2026-04-26 13:21 | 11.15200 | 122.23457 | 35942 ft | 324 kts | 232° |
| 2026-04-26 13:21 | 11.13837 | 122.21638 | 36449 ft | 322 kts | 232° |
| 2026-04-26 13:22 | 11.12484 | 122.19831 | 36950 ft | 320 kts | 232° |
| 2026-04-26 13:22 | 11.11140 | 122.18036 | 37434 ft | 318 kts | 232° |
| 2026-04-26 13:22 | 11.10232 | 122.16824 | 37744 ft | 318 kts | 233° |
| 2026-04-26 13:22 | 11.08891 | 122.15033 | 38199 ft | 317 kts | 233° |
| 2026-04-26 13:23 | 11.07554 | 122.13251 | 38649 ft | 316 kts | 233° |
| 2026-04-26 13:23 | 11.06222 | 122.11472 | 39024 ft | 316 kts | 233° |
| 2026-04-26 13:23 | 11.04889 | 122.09693 | 39394 ft | 315 kts | 233° |
| 2026-04-26 13:23 | 11.03560 | 122.07921 | 39759 ft | 316 kts | 233° |
| 2026-04-26 13:24 | 11.02222 | 122.06137 | 39879 ft | 325 kts | 233° |
| 2026-04-26 13:24 | 11.00825 | 122.04273 | 39908 ft | 337 kts | 233° |
| 2026-04-26 13:24 | 10.99380 | 122.02346 | 39917 ft | 348 kts | 233° |
| 2026-04-26 13:24 | 10.97885 | 122.00355 | 39917 ft | 359 kts | 233° |
| 2026-04-26 13:25 | 10.96348 | 121.98307 | 39917 ft | 369 kts | 233° |
| 2026-04-26 13:25 | 10.93161 | 121.94060 | 39908 ft | 386 kts | 233° |
| 2026-04-26 13:26 | 10.89846 | 121.89644 | 39906 ft | 399 kts | 233° |
| 2026-04-26 13:26 | 10.86425 | 121.85090 | 39899 ft | 410 kts | 233° |
| 2026-04-26 13:27 | 10.82942 | 121.80457 | 39901 ft | 419 kts | 233° |
| 2026-04-26 13:27 | 10.79385 | 121.75726 | 39895 ft | 417 kts | 233° |
| 2026-04-26 13:28 | 10.75864 | 121.71044 | 39897 ft | 416 kts | 233° |
| 2026-04-26 13:28 | 10.72353 | 121.66377 | 39891 ft | 415 kts | 233° |
| 2026-04-26 13:29 | 10.68847 | 121.61721 | 39896 ft | 414 kts | 232° |
| 2026-04-26 13:29 | 10.65345 | 121.57073 | 39894 ft | 413 kts | 233° |
| 2026-04-26 13:30 | 10.61848 | 121.52430 | 39893 ft | 413 kts | 233° |
| 2026-04-26 13:30 | 10.58355 | 121.47796 | 39892 ft | 413 kts | 232° |
| 2026-04-26 13:31 | 10.54886 | 121.43196 | 39890 ft | 412 kts | 232° |
| 2026-04-26 13:31 | 10.51842 | 121.38268 | 39888 ft | 413 kts | 245° |
| 2026-04-26 13:32 | 10.49987 | 121.32742 | 39886 ft | 413 kts | 253° |
| 2026-04-26 13:32 | 10.48349 | 121.27144 | 39887 ft | 413 kts | 252° |
| 2026-04-26 13:33 | 10.46728 | 121.21545 | 39889 ft | 413 kts | 253° |
| 2026-04-26 13:33 | 10.45100 | 121.15946 | 39892 ft | 413 kts | 253° |
| 2026-04-26 13:34 | 10.43470 | 121.10347 | 39893 ft | 413 kts | 253° |
| 2026-04-26 13:34 | 10.41840 | 121.04750 | 39890 ft | 413 kts | 253° |
| 2026-04-26 13:35 | 10.40211 | 120.99153 | 39895 ft | 413 kts | 253° |
| 2026-04-26 13:35 | 10.38579 | 120.93552 | 39896 ft | 413 kts | 252° |
| 2026-04-26 13:36 | 10.36944 | 120.87952 | 39886 ft | 413 kts | 252° |
| 2026-04-26 13:36 | 10.36132 | 120.85167 | 39436 ft | 418 kts | 252° |
| 2026-04-26 13:36 | 10.35310 | 120.82357 | 38885 ft | 412 kts | 252° |
| 2026-04-26 13:36 | 10.34497 | 120.79567 | 38320 ft | 407 kts | 252° |
| 2026-04-26 13:37 | 10.33696 | 120.76826 | 37776 ft | 401 kts | 252° |
| 2026-04-26 13:37 | 10.32907 | 120.74130 | 37253 ft | 395 kts | 252° |
| 2026-04-26 13:37 | 10.32130 | 120.71467 | 36737 ft | 391 kts | 252° |
| 2026-04-26 13:37 | 10.31359 | 120.68835 | 36228 ft | 387 kts | 252° |
| 2026-04-26 13:38 | 10.30594 | 120.66218 | 35721 ft | 384 kts | 252° |
| 2026-04-26 13:38 | 10.29845 | 120.63660 | 35224 ft | 382 kts | 252° |
| 2026-04-26 13:38 | 10.29089 | 120.61079 | 34724 ft | 380 kts | 251° |
| 2026-04-26 13:38 | 10.28337 | 120.58506 | 34224 ft | 379 kts | 251° |
| 2026-04-26 13:39 | 10.27585 | 120.55943 | 33703 ft | 378 kts | 251° |
| 2026-04-26 13:39 | 10.26838 | 120.53394 | 33194 ft | 376 kts | 251° |
| 2026-04-26 13:39 | 10.26095 | 120.50855 | 32701 ft | 374 kts | 251° |
| 2026-04-26 13:39 | 10.25353 | 120.48330 | 32207 ft | 372 kts | 251° |
| 2026-04-26 13:40 | 10.24618 | 120.45820 | 31720 ft | 370 kts | 251° |
| 2026-04-26 13:40 | 10.23885 | 120.43324 | 31238 ft | 368 kts | 252° |
| 2026-04-26 13:40 | 10.23155 | 120.40839 | 30755 ft | 367 kts | 252° |
| 2026-04-26 13:40 | 10.22419 | 120.38357 | 30271 ft | 366 kts | 251° |
| 2026-04-26 13:41 | 10.21680 | 120.35890 | 29762 ft | 365 kts | 252° |
| 2026-04-26 13:41 | 10.20945 | 120.33425 | 29270 ft | 377 kts | 252° |
| 2026-04-26 13:41 | 10.20170 | 120.30814 | 28753 ft | 395 kts | 252° |
| 2026-04-26 13:41 | 10.19356 | 120.28084 | 28219 ft | 411 kts | 252° |
| 2026-04-26 13:42 | 10.18517 | 120.25256 | 27663 ft | 425 kts | 252° |
| 2026-04-26 13:42 | 10.17660 | 120.22387 | 27124 ft | 422 kts | 252° |
| 2026-04-26 13:42 | 10.16817 | 120.19546 | 26571 ft | 415 kts | 252° |
| 2026-04-26 13:42 | 10.15986 | 120.16764 | 26030 ft | 410 kts | 252° |
| 2026-04-26 13:43 | 10.15163 | 120.14008 | 25490 ft | 406 kts | 252° |
| 2026-04-26 13:43 | 10.14349 | 120.11276 | 24961 ft | 404 kts | 253° |
| 2026-04-26 13:43 | 10.13524 | 120.08514 | 24425 ft | 416 kts | 253° |
| 2026-04-26 13:43 | 10.12673 | 120.05658 | 23870 ft | 429 kts | 253° |
| 2026-04-26 13:44 | 10.11817 | 120.02799 | 23274 ft | 427 kts | 253° |
| 2026-04-26 13:44 | 10.10963 | 119.99929 | 22697 ft | 421 kts | 253° |
| 2026-04-26 13:44 | 10.10115 | 119.97100 | 22145 ft | 417 kts | 253° |
| 2026-04-26 13:44 | 10.09280 | 119.94300 | 21600 ft | 413 kts | 253° |
| 2026-04-26 13:45 | 10.08448 | 119.91524 | 21059 ft | 410 kts | 253° |
| 2026-04-26 13:45 | 10.07621 | 119.88755 | 20518 ft | 408 kts | 253° |
| 2026-04-26 13:45 | 10.06798 | 119.86004 | 19982 ft | 406 kts | 253° |
| 2026-04-26 13:45 | 10.05978 | 119.83268 | 19447 ft | 404 kts | 252° |
| 2026-04-26 13:46 | 10.05162 | 119.80537 | 18916 ft | 403 kts | 253° |
| 2026-04-26 13:46 | 10.04348 | 119.77824 | 18394 ft | 402 kts | 252° |
| 2026-04-26 13:46 | 10.03538 | 119.75116 | 17822 ft | 400 kts | 253° |
| 2026-04-26 13:46 | 10.02737 | 119.72449 | 17295 ft | 398 kts | 253° |
| 2026-04-26 13:47 | 10.01936 | 119.69773 | 16771 ft | 395 kts | 253° |
| 2026-04-26 13:47 | 10.01139 | 119.67117 | 16252 ft | 393 kts | 253° |
| 2026-04-26 13:47 | 10.00343 | 119.64460 | 15738 ft | 392 kts | 253° |
| 2026-04-26 13:47 | 9.99551 | 119.61827 | 15213 ft | 390 kts | 253° |
| 2026-04-26 13:48 | 9.98762 | 119.59188 | 14703 ft | 388 kts | 253° |
| 2026-04-26 13:48 | 9.97976 | 119.56578 | 14191 ft | 386 kts | 253° |
| 2026-04-26 13:48 | 9.97197 | 119.53981 | 13679 ft | 383 kts | 253° |
| 2026-04-26 13:48 | 9.96422 | 119.51400 | 13145 ft | 381 kts | 253° |
| 2026-04-26 13:49 | 9.95655 | 119.48852 | 12671 ft | 373 kts | 253° |
| 2026-04-26 13:49 | 9.94920 | 119.46404 | 12275 ft | 364 kts | 253° |
| 2026-04-26 13:49 | 9.94184 | 119.43955 | 11803 ft | 360 kts | 253° |
| 2026-04-26 13:49 | 9.93448 | 119.41529 | 11333 ft | 358 kts | 252° |
| 2026-04-26 13:50 | 9.92391 | 119.39282 | 10862 ft | 342 kts | 238° |
| 2026-04-26 13:50 | 9.91177 | 119.37288 | 10429 ft | 321 kts | 237° |
| 2026-04-26 13:50 | 9.90039 | 119.35444 | 10020 ft | 308 kts | 237° |
| 2026-04-26 13:50 | 9.88926 | 119.33583 | 9601 ft | 309 kts | 238° |
| 2026-04-26 13:51 | 9.87816 | 119.31723 | 9183 ft | 308 kts | 238° |
| 2026-04-26 13:51 | 9.86716 | 119.29875 | 8774 ft | 305 kts | 238° |
| 2026-04-26 13:51 | 9.85616 | 119.28051 | 8387 ft | 302 kts | 238° |
| 2026-04-26 13:51 | 9.84531 | 119.26235 | 7986 ft | 300 kts | 238° |
| 2026-04-26 13:52 | 9.83445 | 119.24431 | 7591 ft | 299 kts | 238° |
| 2026-04-26 13:52 | 9.82367 | 119.22625 | 7197 ft | 298 kts | 238° |
| 2026-04-26 13:52 | 9.81291 | 119.20835 | 6804 ft | 298 kts | 238° |
| 2026-04-26 13:52 | 9.80216 | 119.19041 | 6409 ft | 298 kts | 238° |
| 2026-04-26 13:53 | 9.79138 | 119.17245 | 6004 ft | 297 kts | 238° |
| 2026-04-26 13:53 | 9.78064 | 119.15455 | 5604 ft | 296 kts | 238° |
| 2026-04-26 13:53 | 9.76995 | 119.13672 | 5199 ft | 295 kts | 238° |
| 2026-04-26 13:53 | 9.75927 | 119.11896 | 4823 ft | 294 kts | 238° |
| 2026-04-26 13:54 | 9.74868 | 119.10126 | 4425 ft | 293 kts | 238° |
| 2026-04-26 13:54 | 9.73809 | 119.08368 | 4038 ft | 291 kts | 238° |
| 2026-04-26 13:54 | 9.72999 | 119.06551 | 3746 ft | 282 kts | 260° |
| 2026-04-26 13:55 | 9.72995 | 119.02741 | 3493 ft | 262 kts | 275° |
| 2026-04-26 13:55 | 9.73073 | 119.01525 | 3330 ft | 261 kts | 276° |
| 2026-04-26 13:55 | 9.73279 | 118.97274 | 2771 ft | 259 kts | 274° |
| 2026-04-26 13:56 | 9.73355 | 118.95447 | 2589 ft | 259 kts | 274° |
| 2026-04-26 13:56 | 9.73436 | 118.93609 | 2535 ft | 263 kts | 274° |
| 2026-04-26 13:56 | 9.73522 | 118.91751 | 2508 ft | 263 kts | 274° |
| 2026-04-26 13:56 | 9.73599 | 118.89905 | 2373 ft | 269 kts | 274° |
| 2026-04-26 13:57 | 9.73688 | 118.87991 | 2059 ft | 273 kts | 274° |
| 2026-04-26 13:57 | 9.73765 | 118.86110 | 1728 ft | 255 kts | 274° |
| 2026-04-26 13:57 | 9.73844 | 118.84380 | 1416 ft | 237 kts | 274° |
| 2026-04-26 13:57 | 9.73911 | 118.82756 | 1118 ft | 224 kts | 274° |
| 2026-04-26 13:58 | 9.73982 | 118.81221 | 853 ft | 213 kts | 274° |
| 2026-04-26 13:58 | 9.74042 | 118.79831 | 624 ft | 183 kts | 274° |
| 2026-04-26 13:58 | 9.74130 | 118.78618 | 571 ft | 160 kts | 285° |
| 2026-04-26 13:58 | 9.74772 | 118.77808 | 583 ft | 141 kts | 320° |
| 2026-04-26 13:59 | 9.75468 | 118.77112 | 578 ft | 141 kts | 318° |
| 2026-04-26 13:59 | 9.76179 | 118.76434 | 597 ft | 145 kts | 319° |
| 2026-04-26 13:59 | 9.76871 | 118.75637 | 576 ft | 153 kts | 292° |
| 2026-04-26 14:00 | 9.77029 | 118.72818 | 577 ft | 124 kts | 275° |
| 2026-04-26 14:00 | 9.76670 | 118.72096 | 511 ft | 122 kts | 199° |
| 2026-04-26 14:00 | 9.76126 | 118.72051 | 568 ft | 114 kts | 180° |
| 2026-04-26 14:01 | 9.75080 | 118.71977 | 563 ft | 115 kts | 165° |
| 2026-04-26 14:01 | 9.74418 | 118.72383 | 525 ft | 112 kts | 120° |
| 2026-04-26 14:01 | 9.74311 | 118.73150 | 469 ft | 113 kts | 86° |
| 2026-04-26 14:01 | 9.74296 | 118.73939 | 288 ft | 110 kts | 92° |
| 2026-04-26 14:02 | 9.74264 | 118.74685 | 129 ft | 102 kts | 91° |
| 2026-04-26 14:02 | 9.74238 | 118.75340 | 75 ft | 81 kts | 91° |
| 2026-04-26 14:02 | 9.74219 | 118.75750 | 73 ft | 27 kts | 93° |
| 2026-04-26 14:02 | 9.74217 | 118.75846 | 73 ft | 11 kts | 78° |
| 2026-04-26 14:03 | 9.74225 | 118.75898 | 74 ft | 1 kts | 147° |
| 2026-04-26 14:03 | 9.74216 | 118.75834 | 73 ft | 25 kts | 272° |
| 2026-04-26 14:03 | 9.74225 | 118.75636 | 69 ft | 29 kts | 272° |
| 2026-04-26 14:03 | 9.74234 | 118.75439 | 74 ft | 27 kts | 272° |
| 2026-04-26 14:04 | 9.74244 | 118.75271 | 71 ft | 15 kts | 291° |
| 2026-04-26 14:04 | 9.74331 | 118.75255 | 68 ft | 13 kts | 2° |
| 2026-04-26 14:04 | 9.74397 | 118.75244 | 75 ft | 12 kts | 313° |
| 2026-04-26 14:04 | 9.74411 | 118.75196 | 75 ft | 12 kts | 272° |
| 2026-04-26 14:05 | 9.74420 | 118.75141 | 70 ft | 2 kts | 360° |
| 2026-04-26 14:05 | 9.74497 | 118.75154 | 73 ft | 0 kts | 2° |